Thunder radar more information blitzortung!


Radar de pluja more information rain snow radar


Visita la nostra xarxa de llocs de meteo:

Template documentation
and downloads

And another site



No particular awareness of the weather is required.    There are no Weather-warnings

Pagina Historial Weather Underground text

Diari Resum May 26, 2017 Unitats:  Mètric    Imperial   Tant
« Previous Dia
SegĂźent Dia »
Diari Setmana Mensual Anual Personalitzada
  Maxima: Minima: Media:
Temperatura: -17.8 °C -9.3 °C -5.5 °C
Punt de rosada: -17.8 °C -13.3 °C -10.7 °C
Humitat: Humidity % 42 % 57 %
Wind Speed: 0 km/h 0 km/h 13.4 km/h
RĂ fegues de vent: 0 km/h - -
Vent:- - East
Pression baro: 0 hPa 34256.2 hPa -
Precipitacions: 0 mm    
Historical Graphs
 
 
Dades de taula per May 26, 2017
Temps Temperatura Punt de rosada Pression baro Vent Wind Speed RĂ fegues de vent Humitat Rainfall Rate (Hourly)
-17.8 °C -17.8 °C 0 hPa Calm     Humidity % 0 mm
00:00 -8.7 °C -12.9 °C 34327.3 hPa Calm   5.1 km/h 61 % 0 mm
00:03 -5.8 °C -13.3 °C 34256.2 hPa SW 3.1 km/h 3.1 km/h 42 % 0 mm
00:08 -5.8 °C -13.3 °C 34256.2 hPa WSW 3.7 km/h 3.7 km/h 42 % 0 mm
00:10 -8.8 °C -13.1 °C 34327.3 hPa Calm     60 % 0 mm
00:13 -5.9 °C -13.2 °C 34256.2 hPa WSW 3.1 km/h 3.1 km/h 43 % 0 mm
00:20 -8.8 °C -13.1 °C 34327.3 hPa Calm     60 % 0 mm
00:30 -8.7 °C -12.7 °C 34293.4 hPa WSW 2.6 km/h 5.1 km/h 62 % 0 mm
00:40 -8.7 °C -12.9 °C 34293.4 hPa East 2.6 km/h 2.6 km/h 61 % 0 mm
00:50 -8.8 °C -12.9 °C 34293.4 hPa ENE 2.6 km/h 5.1 km/h 61 % 0 mm
01:00 -8.8 °C -12.9 °C 34327.3 hPa Calm     61 % 0 mm
01:10 -8.9 °C -13.1 °C 34327.3 hPa Calm     61 % 0 mm
01:20 -8.9 °C -13 °C 34327.3 hPa Calm     62 % 0 mm
01:30 -9.1 °C -13.2 °C 34293.4 hPa WNW 2.6 km/h 2.6 km/h 62 % 0 mm
01:40 -9.2 °C -13.2 °C 34293.4 hPa WSW 2.6 km/h 2.6 km/h 62 % 0 mm
01:50 -9.2 °C -13.2 °C 34293.4 hPa SW 2.6 km/h 5.1 km/h 62 % 0 mm
02:00 -9.3 °C -13.3 °C 34327.3 hPa Calm   5.1 km/h 62 % 0 mm
02:10 -9.1 °C -13.2 °C 34327.3 hPa Calm     62 % 0 mm
02:20 -8.9 °C -13.1 °C 34327.3 hPa Calm     61 % 0 mm
02:30 -8.6 °C -12.8 °C 34293.4 hPa ESE 2.6 km/h 5.1 km/h 61 % 0 mm
02:40 -8.3 °C -12.8 °C 34327.3 hPa Calm   2.6 km/h 59 % 0 mm
02:50 -8 °C -12.5 °C 34327.3 hPa NE 2.6 km/h 5.1 km/h 59 % 0 mm
03:00 -7.9 °C -12.7 °C 34361.1 hPa NE 2.6 km/h 2.6 km/h 57 % 0 mm
03:10 -7.7 °C -12.4 °C 34327.3 hPa NNE 5.1 km/h 7.7 km/h 57 % 0 mm
03:20 -7.5 °C -12.4 °C 34327.3 hPa NE 5.1 km/h 7.7 km/h 56 % 0 mm
03:30 -7.2 °C -12.5 °C 34361.1 hPa ENE 2.6 km/h 7.7 km/h 54 % 0 mm
03:40 -6.7 °C -12.1 °C 34327.3 hPa Calm   5.1 km/h 54 % 0 mm
03:50 -6.7 °C -12 °C 34327.3 hPa ENE 5.1 km/h 7.7 km/h 54 % 0 mm
04:00 -6.4 °C -11.9 °C 34361.1 hPa ENE 5.1 km/h 7.7 km/h 53 % 0 mm
04:10 -6.2 °C -11.9 °C 34361.1 hPa ENE 2.6 km/h 10.3 km/h 52 % 0 mm
04:20 -6.1 °C -11.8 °C 34361.1 hPa NE 5.1 km/h 7.7 km/h 52 % 0 mm
04:30 -5.9 °C -11.8 °C 34361.1 hPa NE 5.1 km/h 10.3 km/h 51 % 0 mm
04:40 -5.7 °C -11.8 °C 34361.1 hPa ENE 5.1 km/h 7.7 km/h 50 % 0 mm
04:50 -5.2 °C -11.3 °C 34361.1 hPa Calm   5.1 km/h 50 % 0 mm
09:59 -5.2 °C -11.4 °C 34361.1 hPa ESE 9 km/h 9 km/h 49 % 0 mm
10:04 -5.2 °C -11.4 °C 34361.1 hPa SE 9 km/h 9 km/h 49 % 0 mm
10:09 -5.1 °C -11.4 °C 34361.1 hPa NE 15 km/h 15 km/h 49 % 0 mm
10:14 -4.9 °C -11.4 °C 34361.1 hPa NNE 15 km/h 15 km/h 48 % 0 mm
10:19 -4.9 °C -11.2 °C 34361.1 hPa East 9 km/h 9 km/h 49 % 0 mm
10:24 -4.8 °C -11.1 °C 34361.1 hPa NNE 15 km/h 15 km/h 49 % 0 mm
10:29 -4.7 °C -11 °C 34361.1 hPa ENE 15 km/h 15 km/h 49 % 0 mm
10:34 -4.6 °C -10.9 °C 34361.1 hPa ESE 9 km/h 9 km/h 49 % 0 mm
10:39 -4.3 °C -10.7 °C 34327.3 hPa ESE 15 km/h 15 km/h 49 % 0 mm
10:44 -4.1 °C -10.4 °C 34327.3 hPa ENE 9 km/h 9 km/h 49 % 0 mm
10:45 -4.1 °C -10.4 °C 34327.3 hPa ENE 5.1 km/h 12.9 km/h 49 % 0 mm
10:50 -4.2 °C -10.5 °C 34327.3 hPa East 5.1 km/h 18.2 km/h 49 % 0 mm
10:55 -4.1 °C -10.6 °C 34361.1 hPa ESE 12.9 km/h 18.2 km/h 48 % 0 mm
11:00 -3.9 °C -10.5 °C 34361.1 hPa ENE 7.7 km/h 10.3 km/h 48 % 0 mm
11:05 -3.9 °C -10.7 °C 34361.1 hPa ESE 12.7 km/h 12.7 km/h 47 % 0 mm
11:10 -3.6 °C -10.4 °C 34327.3 hPa East 14.5 km/h 14.5 km/h 47 % 0 mm
11:15 -3.9 °C -10.8 °C 34327.3 hPa ESE 15.6 km/h 20.8 km/h 46 % 0 mm
11:20 -3.6 °C -10.5 °C 34327.3 hPa East 7.7 km/h 15.6 km/h 46 % 0 mm
11:25 -3.8 °C -10.7 °C 34327.3 hPa ESE 15.6 km/h 18.2 km/h 46 % 0 mm
11:30 -3.4 °C -10.4 °C 34327.3 hPa ESE 15 km/h 15 km/h 46 % 0 mm
11:35 -3 °C -10.2 °C 34327.3 hPa SSE 11.9 km/h 11.9 km/h 45 % 0 mm
11:40 -2.9 °C -10.1 °C 34327.3 hPa ESE 16.6 km/h 16.6 km/h 45 % 0 mm
11:45 -3.2 °C -10.6 °C 34327.3 hPa East 11.9 km/h 11.9 km/h 44 % 0 mm
11:50 -3.2 °C -10.7 °C 34327.3 hPa ENE 15 km/h 15 km/h 43 % 0 mm
11:55 -3.3 °C -10.7 °C 34327.3 hPa ESE 15 km/h 15 km/h 44 % 0 mm
12:00 -3.1 °C -10.4 °C 34327.3 hPa NNE 14.5 km/h 14.5 km/h 44 % 0 mm
12:05 -2.8 °C -10.2 °C 34327.3 hPa ESE 11.9 km/h 11.9 km/h 44 % 0 mm
12:10 -2.8 °C -10.2 °C 34327.3 hPa North 14.5 km/h 14.5 km/h 44 % 0 mm
12:15 -2.9 °C -10.3 °C 34327.3 hPa ESE 20.9 km/h 20.9 km/h 44 % 0 mm
12:20 -2.8 °C -10.2 °C 34327.3 hPa East 15 km/h 15 km/h 44 % 0 mm
12:25 -2.6 °C -10.2 °C 34327.3 hPa ESE 20.9 km/h 20.9 km/h 43 % 0 mm
12:30 -2.5 °C -10.3 °C 34327.3 hPa NE 15 km/h 15 km/h 42 % 0 mm
12:35 -2.7 °C -10.5 °C 34327.3 hPa ENE 15.3 km/h 15.3 km/h 42 % 0 mm
12:40 -2.8 °C -10.4 °C 34327.3 hPa North 23.8 km/h 23.8 km/h 43 % 0 mm
12:45 -2.7 °C -10.5 °C 34327.3 hPa ESE 17.9 km/h 17.9 km/h 42 % 0 mm
12:50 -2.7 °C -10.5 °C 34327.3 hPa ESE 20.9 km/h 20.9 km/h 42 % 0 mm
12:55 -2.8 °C -10.6 °C 34327.3 hPa East 23.8 km/h 23.8 km/h 42 % 0 mm
13:00 -2.8 °C -10.6 °C 34327.3 hPa ENE 23.8 km/h 23.8 km/h 42 % 0 mm
13:05 -2.9 °C -10.5 °C 34327.3 hPa ENE 20.9 km/h 20.9 km/h 43 % 0 mm
13:10 -2.8 °C -10.4 °C 34293.4 hPa East 11.9 km/h 11.9 km/h 43 % 0 mm
13:15 -2.9 °C -10.3 °C 34293.4 hPa ESE 26.9 km/h 26.9 km/h 44 % 0 mm
13:20 -2.9 °C -10.3 °C 34293.4 hPa ESE 29.8 km/h 29.8 km/h 44 % 0 mm
13:25 -2.7 °C -10.2 °C 34327.3 hPa ESE 26.9 km/h 26.9 km/h 43 % 0 mm
13:30 -2.9 °C -10.3 °C 34327.3 hPa NE 26.9 km/h 26.9 km/h 44 % 0 mm
13:35 -2.7 °C -10.3 °C 34327.3 hPa ENE 20.9 km/h 20.9 km/h 43 % 0 mm
13:40 -2.8 °C -10.2 °C 34327.3 hPa ESE 17.9 km/h 17.9 km/h 44 % 0 mm
13:45 -2.8 °C -10.2 °C 34327.3 hPa East 26.9 km/h 26.9 km/h 44 % 0 mm
13:50 -2.9 °C -10.3 °C 34327.3 hPa ESE 27.7 km/h 27.7 km/h 44 % 0 mm
13:55 -2.8 °C -10.2 °C 34327.3 hPa ESE 20.9 km/h 20.9 km/h 44 % 0 mm
14:00 -2.9 °C -10.3 °C 34327.3 hPa ESE 26.9 km/h 26.9 km/h 44 % 0 mm
14:05 -3 °C -10.4 °C 34327.3 hPa ESE 24.3 km/h 24.3 km/h 44 % 0 mm
14:10 -3 °C -10.2 °C 34327.3 hPa ENE 26.9 km/h 26.9 km/h 45 % 0 mm
14:15 -3.1 °C -10.2 °C 34327.3 hPa ENE 32.8 km/h 32.8 km/h 45 % 0 mm
14:20 -2.9 °C -10.1 °C 34327.3 hPa ESE 22 km/h 22 km/h 45 % 0 mm
14:25 -2.9 °C -9.9 °C 34361.1 hPa ENE 23.8 km/h 23.8 km/h 46 % 0 mm
14:30 -3.2 °C -10.2 °C 34361.1 hPa ESE 26.9 km/h 26.9 km/h 46 % 0 mm
14:35 -3 °C -9.9 °C 34361.1 hPa ENE 26.9 km/h 26.9 km/h 46 % 0 mm
14:40 -3.3 °C -10.2 °C 34327.3 hPa East 29.5 km/h 29.5 km/h 46 % 0 mm
14:45 -3.2 °C -9.9 °C 34327.3 hPa ESE 23.8 km/h 23.8 km/h 47 % 0 mm
14:50 -3.3 °C -10.1 °C 34327.3 hPa ENE 23.8 km/h 23.8 km/h 47 % 0 mm
14:51 -3.3 °C -10.1 °C 34327.3 hPa SSE 17.9 km/h 17.9 km/h 47 % 0 mm
14:56 -3.3 °C -10.1 °C 34327.3 hPa East 20.9 km/h 20.9 km/h 47 % 0 mm
15:01 -3.2 °C -10 °C 34327.3 hPa ESE 26.9 km/h 26.9 km/h 47 % 0 mm
15:06 -3.3 °C -10.1 °C 34327.3 hPa ESE 26.9 km/h 26.9 km/h 47 % 0 mm
15:11 -3.4 °C -10.1 °C 34327.3 hPa ENE 17.9 km/h 17.9 km/h 48 % 0 mm
15:16 -3.5 °C -10.2 °C 34327.3 hPa East 29.8 km/h 29.8 km/h 47 % 0 mm
15:21 -3.5 °C -10.1 °C 34327.3 hPa SE 26.9 km/h 26.9 km/h 48 % 0 mm
15:26 -3.6 °C -10.1 °C 34327.3 hPa NNE 26.9 km/h 26.9 km/h 48 % 0 mm
15:31 -3.7 °C -10.2 °C 34327.3 hPa SE 26.9 km/h 26.9 km/h 48 % 0 mm
15:36 -3.5 °C -10.1 °C 34327.3 hPa ESE 23.8 km/h 23.8 km/h 48 % 0 mm
15:41 -3.7 °C -10.2 °C 34327.3 hPa ESE 17.9 km/h 17.9 km/h 48 % 0 mm
15:46 -3.8 °C -10.4 °C 34327.3 hPa East 26.9 km/h 26.9 km/h 48 % 0 mm
15:51 -3.7 °C -10.3 °C 34327.3 hPa ENE 23.8 km/h 23.8 km/h 48 % 0 mm
15:56 -3.4 °C -9.9 °C 34327.3 hPa East 15 km/h 15 km/h 48 % 0 mm
16:01 -3.6 °C -10.1 °C 34327.3 hPa East 32.8 km/h 32.8 km/h 48 % 0 mm
16:06 -3.6 °C -10.1 °C 34327.3 hPa SSE 22 km/h 22 km/h 48 % 0 mm
16:11 -3.6 °C -10 °C 34327.3 hPa NE 22.5 km/h 22.5 km/h 49 % 0 mm
16:16 -3.5 °C -9.9 °C 34327.3 hPa ESE 17.9 km/h 17.9 km/h 49 % 0 mm
16:21 -3.6 °C -10 °C 34327.3 hPa ESE 23.8 km/h 23.8 km/h 49 % 0 mm
16:26 -3.6 °C -10 °C 34327.3 hPa ENE 26.9 km/h 26.9 km/h 49 % 0 mm
16:31 -3.7 °C -10.1 °C 34327.3 hPa NNW 20.9 km/h 20.9 km/h 49 % 0 mm
16:36 -3.7 °C -10.1 °C 34327.3 hPa SE 17.9 km/h 17.9 km/h 49 % 0 mm
16:41 -3.8 °C -10.1 °C 34327.3 hPa WNW 29.8 km/h 29.8 km/h 50 % 0 mm
16:46 -3.9 °C -9.9 °C 34327.3 hPa ENE 17.9 km/h 17.9 km/h 51 % 0 mm
16:51 -3.8 °C -10.1 °C 34293.4 hPa ENE 23.8 km/h 23.8 km/h 50 % 0 mm
16:56 -3.8 °C -9.9 °C 34293.4 hPa ENE 15.3 km/h 15.3 km/h 50 % 0 mm
17:01 -3.9 °C -10.1 °C 34293.4 hPa ENE 16.6 km/h 16.6 km/h 50 % 0 mm
17:06 -4 °C -10 °C 34293.4 hPa ENE 26.9 km/h 26.9 km/h 51 % 0 mm
17:11 -3.9 °C -9.9 °C 34293.4 hPa SE 15 km/h 15 km/h 51 % 0 mm
17:16 -3.9 °C -10.1 °C 34293.4 hPa East 16.1 km/h 16.1 km/h 50 % 0 mm
17:21 -3.9 °C -10.1 °C 34293.4 hPa NE 17.9 km/h 17.9 km/h 50 % 0 mm
17:22 -3.9 °C -10.2 °C 34293.4 hPa ENE 17.9 km/h 17.9 km/h 49 % 0 mm
17:27 -3.9 °C -10.2 °C 34293.4 hPa NE 23.3 km/h 23.3 km/h 49 % 0 mm
17:32 -3.9 °C -10.3 °C 34293.4 hPa ENE 23.8 km/h 23.8 km/h 49 % 0 mm
17:37 -4 °C -10.4 °C 34293.4 hPa East 20.9 km/h 20.9 km/h 49 % 0 mm
17:42 -3.9 °C -10.3 °C 34293.4 hPa NNE 19.6 km/h 19.6 km/h 49 % 0 mm
17:47 -3.9 °C -10.7 °C 34293.4 hPa NE 17.9 km/h 17.9 km/h 47 % 0 mm
17:52 -3.8 °C -10.9 °C 34293.4 hPa ESE 26.9 km/h 26.9 km/h 45 % 0 mm
17:57 -3.9 °C -10.8 °C 34293.4 hPa ENE 17.9 km/h 17.9 km/h 46 % 0 mm
18:02 -3.8 °C -10.7 °C 34293.4 hPa SE 16.1 km/h 16.1 km/h 46 % 0 mm
18:07 -3.8 °C -10.7 °C 34327.3 hPa North 23.8 km/h 23.8 km/h 46 % 0 mm
18:12 -3.8 °C -10.5 °C 34327.3 hPa SE 15 km/h 15 km/h 47 % 0 mm
18:17 -3.8 °C -10.5 °C 34327.3 hPa ESE 17.9 km/h 17.9 km/h 47 % 0 mm
18:22 -3.9 °C -10.6 °C 34327.3 hPa NE 15 km/h 15 km/h 47 % 0 mm
18:27 -3.9 °C -10.6 °C 34327.3 hPa North 15 km/h 15 km/h 47 % 0 mm
18:37 -3.9 °C -10.6 °C 34327.3 hPa ENE 9.8 km/h 9.8 km/h 47 % 0 mm
18:42 -3.9 °C -10.6 °C 34327.3 hPa East 11.9 km/h 11.9 km/h 47 % 0 mm
18:47 -4 °C -10.5 °C 34327.3 hPa East 17.9 km/h 17.9 km/h 48 % 0 mm
18:52 -3.9 °C -10.5 °C 34327.3 hPa ESE 15 km/h 15 km/h 48 % 0 mm
18:57 -4 °C -10.5 °C 34327.3 hPa East 15 km/h 15 km/h 48 % 0 mm
19:07 -4.2 °C -10.7 °C 34327.3 hPa ENE 15 km/h 15 km/h 48 % 0 mm
19:12 -4.3 °C -10.5 °C 34327.3 hPa ESE 19.6 km/h 19.6 km/h 50 % 0 mm
19:17 -4.6 °C -10.5 °C 34327.3 hPa ESE 26.9 km/h 26.9 km/h 51 % 0 mm
19:20 -8.1 °C -10.3 °C 34361.1 hPa NE 7.7 km/h 10.3 km/h 78 % 0 mm
19:22 -4.6 °C -10.6 °C 34293.4 hPa NW 16.1 km/h 16.1 km/h 51 % 0 mm
19:27 -4.7 °C -10.5 °C 34293.4 hPa ESE 15 km/h 17.4 km/h 52 % 0 mm
19:30 -8.2 °C -10.3 °C 34361.1 hPa NE 7.7 km/h 10.3 km/h 78 % 0 mm
19:32 -4.8 °C -10.4 °C 34293.4 hPa ENE 17.9 km/h 17.9 km/h 53 % 0 mm
19:37 -4.9 °C -10.2 °C 34327.3 hPa ENE 16.1 km/h 16.1 km/h 55 % 0 mm
19:40 -8.2 °C -10.2 °C 34361.1 hPa NNE 5.1 km/h 7.7 km/h 79 % 0 mm
19:42 -5 °C -10.4 °C 34327.3 hPa SE 15 km/h 15 km/h 54 % 0 mm
19:47 -5.1 °C -10.3 °C 34327.3 hPa NNE 15 km/h 15 km/h 55 % 0 mm
19:50 -8.2 °C -10.2 °C 34361.1 hPa NE 5.1 km/h 7.7 km/h 79 % 0 mm
19:52 -5.1 °C -10.2 °C 34327.3 hPa NNE 17.9 km/h 17.9 km/h 56 % 0 mm
19:57 -5.2 °C -10.3 °C 34327.3 hPa ENE 11.9 km/h 11.9 km/h 56 % 0 mm
20:00 -8.2 °C -10.2 °C 34395 hPa NE 5.1 km/h 7.7 km/h 79 % 0 mm
20:02 -5.2 °C -10.3 °C 34327.3 hPa ENE 15 km/h 15 km/h 56 % 0 mm
20:07 -5.3 °C -10.2 °C 34327.3 hPa NE 11.6 km/h 11.6 km/h 57 % 0 mm
20:10 -8.3 °C -10.2 °C 34395 hPa NE 7.7 km/h 10.3 km/h 80 % 0 mm
20:12 -5.3 °C -10.4 °C 34327.3 hPa NNE 15 km/h 15 km/h 56 % 0 mm
20:17 -5.3 °C -10.4 °C 34327.3 hPa East 11.9 km/h 11.9 km/h 56 % 0 mm
20:20 -8.3 °C -10.2 °C 34395 hPa NE 7.7 km/h 7.7 km/h 80 % 0 mm
20:22 -5.4 °C -10.5 °C 34293.4 hPa ESE 11.9 km/h 11.9 km/h 56 % 0 mm
20:27 -5.4 °C -10.6 °C 34293.4 hPa ENE 15 km/h 15 km/h 56 % 0 mm
20:30 -8.3 °C -10.2 °C 34395 hPa NE 5.1 km/h 10.3 km/h 80 % 0 mm
20:32 -5.6 °C -10.5 °C 34293.4 hPa NNW 9 km/h 9 km/h 57 % 0 mm
20:37 -5.7 °C -10.3 °C 34327.3 hPa East 15 km/h 15 km/h 59 % 0 mm
20:40 -8.3 °C -10.2 °C 34395 hPa NE 7.7 km/h 10.3 km/h 80 % 0 mm
20:42 -5.7 °C -10.4 °C 34327.3 hPa ENE 9 km/h 9 km/h 59 % 0 mm
20:47 -5.8 °C -10.3 °C 34327.3 hPa NNE 11.9 km/h 11.9 km/h 60 % 0 mm
20:50 -8.2 °C -10.1 °C 34395 hPa NE 7.7 km/h 10.3 km/h 81 % 0 mm
20:52 -5.9 °C -10.3 °C 34327.3 hPa NNE 11.9 km/h 11.9 km/h 61 % 0 mm
20:57 -6.1 °C -10.4 °C 34327.3 hPa NNE 11.9 km/h 11.9 km/h 61 % 0 mm
21:00 -8.2 °C -10.1 °C 34395 hPa NE 7.7 km/h 10.3 km/h 81 % 0 mm
21:02 -6.1 °C -10.3 °C 34327.3 hPa NNE 11.9 km/h 11.9 km/h 62 % 0 mm
21:07 -6.3 °C -10.3 °C 34293.4 hPa ESE 9 km/h 9 km/h 63 % 0 mm
21:10 -8.3 °C -10.1 °C 34395 hPa NE 7.7 km/h 10.3 km/h 81 % 0 mm
21:12 -6.3 °C -10.4 °C 34293.4 hPa ENE 11.9 km/h 11.9 km/h 63 % 0 mm
21:17 -6.4 °C -10.4 °C 34293.4 hPa NNE 11.9 km/h 11.9 km/h 64 % 0 mm
21:20 -8.2 °C -10.1 °C 34395 hPa NE 12.9 km/h 15.6 km/h 81 % 0 mm
21:22 -6.6 °C -10.4 °C 34327.3 hPa NE 15.6 km/h 15.6 km/h 64 % 0 mm
21:27 -6.6 °C -10.4 °C 34327.3 hPa NNE 9 km/h 9 km/h 65 % 0 mm
21:30 -8.2 °C -9.9 °C 34395 hPa ENE 7.7 km/h 12.9 km/h 82 % 0 mm
21:32 -6.7 °C -10.2 °C 34327.3 hPa ENE 9.8 km/h 9.8 km/h 67 % 0 mm
21:37 -6.8 °C -10.3 °C 34293.4 hPa ENE 9 km/h 9 km/h 67 % 0 mm
21:40 -8.2 °C -9.9 °C 34395 hPa ENE 7.7 km/h 10.3 km/h 82 % 0 mm
21:42 -6.8 °C -10.3 °C 34293.4 hPa NNE 14 km/h 14 km/h 67 % 0 mm
21:47 -6.9 °C -10.3 °C 34293.4 hPa ENE 11.9 km/h 11.9 km/h 68 % 0 mm
21:50 -8.2 °C -9.9 °C 34395 hPa ENE 5.1 km/h 12.9 km/h 82 % 0 mm
21:52 -7 °C -10.4 °C 34327.3 hPa ENE 6 km/h 6.3 km/h 68 % 0 mm
21:57 -7.1 °C -10.4 °C 34327.3 hPa NNE 7.6 km/h 7.6 km/h 68 % 0 mm
22:00 -8.1 °C -9.8 °C 34395 hPa ENE 7.7 km/h 18.2 km/h 82 % 0 mm
22:02 -7.1 °C -10.2 °C 34327.3 hPa NNE 11.9 km/h 11.9 km/h 70 % 0 mm
22:07 -7.2 °C -10.3 °C 34361.1 hPa NE 11.9 km/h 11.9 km/h 70 % 0 mm
22:10 -8.2 °C -9.9 °C 34395 hPa ENE 7.7 km/h 12.9 km/h 82 % 0 mm
22:12 -7.3 °C -10.3 °C 34361.1 hPa ENE 9 km/h 9 km/h 71 % 0 mm
22:17 -7.3 °C -10.2 °C 34361.1 hPa ENE 10.3 km/h 10.3 km/h 72 % 0 mm
22:20 -8.1 °C -9.8 °C 34395 hPa ENE 7.7 km/h 10.3 km/h 82 % 0 mm
22:22 -7.3 °C -10.2 °C 34361.1 hPa NNE 9 km/h 9 km/h 72 % 0 mm
22:27 -7.4 °C -10.1 °C 34361.1 hPa ENE 9.3 km/h 9.3 km/h 73 % 0 mm
22:30 -8.1 °C -9.8 °C 34395 hPa ENE 7.7 km/h 12.9 km/h 82 % 0 mm
22:32 -7.4 °C -10.1 °C 34361.1 hPa NNE 11.9 km/h 11.9 km/h 73 % 0 mm
22:37 -7.4 °C -10.2 °C 34361.1 hPa NNE 9 km/h 9 km/h 73 % 0 mm
22:40 -8.1 °C -9.8 °C 34395 hPa East 7.7 km/h 15.6 km/h 82 % 0 mm
22:42 -7.4 °C -10.2 °C 34361.1 hPa NE 6 km/h 6 km/h 73 % 0 mm
22:47 -7.5 °C -10.1 °C 34361.1 hPa ESE 6.3 km/h 6.3 km/h 74 % 0 mm
22:50 -8.1 °C -9.8 °C 34395 hPa East 5.1 km/h 15.6 km/h 82 % 0 mm
22:52 -7.5 °C -10.1 °C 34361.1 hPa NNE 6 km/h 6.3 km/h 74 % 0 mm
22:57 -7.5 °C -10.1 °C 34361.1 hPa NNE 7.6 km/h 7.6 km/h 74 % 0 mm
23:00 -8.2 °C -9.9 °C 34395 hPa East 7.7 km/h 15.6 km/h 82 % 0 mm
23:02 -7.5 °C -10.1 °C 34361.1 hPa NE 9 km/h 9 km/h 74 % 0 mm
23:07 -7.5 °C -10.1 °C 34361.1 hPa NE 7.6 km/h 7.6 km/h 74 % 0 mm
23:10 -8.1 °C -9.8 °C 34395 hPa East 7.7 km/h 10.3 km/h 82 % 0 mm
23:12 -7.6 °C -10.2 °C 34361.1 hPa NNE 9 km/h 9 km/h 74 % 0 mm
23:17 -7.6 °C -10.2 °C 34361.1 hPa ENE 9 km/h 9 km/h 74 % 0 mm
23:22 -7.6 °C -10.1 °C 34361.1 hPa NNE 11.9 km/h 11.9 km/h 75 % 0 mm
23:27 -7.7 °C -10.2 °C 34361.1 hPa ENE 9 km/h 9 km/h 75 % 0 mm
23:30 -8.2 °C -9.9 °C 34395 hPa ENE 7.7 km/h 10.3 km/h 82 % 0 mm
23:32 -7.7 °C -10.2 °C 34361.1 hPa NE 9.3 km/h 9.3 km/h 75 % 0 mm
23:37 -7.8 °C -10.2 °C 34361.1 hPa NNE 9 km/h 9 km/h 76 % 0 mm
23:40 -8.1 °C -9.9 °C 34395 hPa ENE 5.1 km/h 12.9 km/h 81 % 0 mm
23:42 -7.9 °C -10.3 °C 34361.1 hPa East 6 km/h 6 km/h 76 % 0 mm
23:47 -7.9 °C -10.3 °C 34361.1 hPa NNE 11.9 km/h 11.9 km/h 76 % 0 mm
23:50 -8.1 °C -9.9 °C 34395 hPa ENE 7.7 km/h 15.6 km/h 81 % 0 mm
23:52 -7.9 °C -10.2 °C 34361.1 hPa ENE 6 km/h 6 km/h 77 % 0 mm
23:57 -8 °C -10.3 °C 34361.1 hPa NNE 11.9 km/h 11.9 km/h 77 % 0 mm
Meteo Sesrovires
Elogis d' Weather Underground - 1.5 mb

Guio original per  Jim McMurry - jmcmurry@mwt.net Adaptat per a la plantilla per  Wim van der Kuil - Leuven-Template.eu

Trobareu la nostra informacio del temps tambe a:

Weather Underground

AWEKAS